Time;durP1;ratioP1;P1;durP2;ratioP2;P2;SDS_P1;SDS_P2;PMS_P1;PMS_P2;Temp;Humidity;BMP_temperature;BMP_pressure;BME280_temperature;BME280_humidity;BME280_pressure;Samples;Min_cycle;Max_cycle;Signal;HPM_P1;HPM_P2
2021/03/15 00:01:59;;;;;;;34.40;13.73;;;;;;;2.27;74.82;99531.28;124196;1111;23064;-59
2021/03/15 00:04:28;;;;;;;33.90;14.40;;;;;;;2.22;74.26;99540.08;124349;1112;24811;-56
2021/03/15 00:06:58;;;;;;;35.05;12.10;;;;;;;2.18;74.12;99538.64;124442;1112;23003;-65
2021/03/15 00:09:27;;;;;;;36.60;14.67;;;;;;;2.17;74.24;99540.61;124457;1111;27893;-59
2021/03/15 00:11:56;;;;;;;37.37;14.37;;;;;;;2.17;74.02;99537.11;124388;1111;26446;-59
2021/03/15 00:14:25;;;;;;;33.23;13.80;;;;;;;2.14;74.21;99538.76;124653;1111;25249;-59
2021/03/15 00:16:54;;;;;;;41.93;15.93;;;;;;;2.14;74.74;99538.76;124472;1112;26012;-59
2021/03/15 00:19:23;;;;;;;38.70;13.70;;;;;;;2.13;73.81;99541.95;124415;1111;25669;-59
2021/03/15 00:21:52;;;;;;;41.23;14.90;;;;;;;2.07;74.09;99536.20;124398;1111;26392;-58
2021/03/15 00:24:21;;;;;;;40.77;15.43;;;;;;;2.07;74.25;99533.45;124399;1112;23145;-59
2021/03/15 00:26:50;;;;;;;36.10;13.70;;;;;;;2.07;74.03;99538.95;124356;1112;24908;-58
2021/03/15 00:29:21;;;;;;;36.95;13.75;;;;;;;2.03;74.15;99538.29;124344;1112;23132;-58
2021/03/15 00:31:51;;;;;;;40.90;14.23;;;;;;;1.98;74.05;99536.09;124374;1111;23060;-58
2021/03/15 00:34:21;;;;;;;38.02;14.20;;;;;;;1.96;74.26;99540.48;124399;1112;23139;-59
2021/03/15 00:36:50;;;;;;;34.93;12.93;;;;;;;1.93;74.66;99549.61;124364;1112;23044;-60
2021/03/15 00:39:19;;;;;;;36.03;13.73;;;;;;;1.89;74.54;99544.22;124380;1111;24022;-57
2021/03/15 00:41:48;;;;;;;35.77;13.53;;;;;;;1.85;73.99;99546.30;124325;1112;23014;-57
2021/03/15 00:44:17;;;;;;;33.70;12.80;;;;;;;1.82;74.30;99544.41;124281;1111;23014;-59
2021/03/15 00:46:46;;;;;;;34.20;13.43;;;;;;;1.80;74.63;99544.07;124357;1112;26606;-60
2021/03/15 00:49:15;;;;;;;38.60;14.03;;;;;;;1.81;74.56;99545.63;124341;1110;23345;-58
2021/03/15 00:51:44;;;;;;;39.97;13.50;;;;;;;1.79;74.13;99539.79;124440;1112;23168;-59
2021/03/15 00:54:15;;;;;;;35.60;14.93;;;;;;;1.76;74.63;99545.41;124585;1111;23219;-60
2021/03/15 00:56:44;;;;;;;44.93;15.63;;;;;;;1.71;74.48;99538.45;124283;1111;23220;-59
2021/03/15 00:59:13;;;;;;;34.03;14.20;;;;;;;1.71;74.47;99537.67;124219;1112;26029;-60
2021/03/15 01:01:42;;;;;;;33.57;15.17;;;;;;;1.69;74.78;99535.37;124244;1112;23094;-59
2021/03/15 01:04:14;;;;;;;32.83;14.60;;;;;;;1.65;74.32;99535.44;124373;1112;23007;-60
2021/03/15 01:06:44;;;;;;;36.77;15.13;;;;;;;1.60;74.96;99527.74;124423;1111;23060;-59
2021/03/15 01:09:13;;;;;;;38.08;13.95;;;;;;;1.55;75.12;99527.52;124404;1110;27444;-58
2021/03/15 01:11:42;;;;;;;36.37;13.43;;;;;;;1.51;75.45;99527.59;124233;1111;23296;-59
2021/03/15 01:14:12;;;;;;;33.83;12.80;;;;;;;1.48;74.65;99541.45;124502;1111;26067;-58
2021/03/15 01:16:42;;;;;;;36.23;13.40;;;;;;;1.48;75.04;99536.73;124407;1112;23006;-60
2021/03/15 01:19:11;;;;;;;35.05;12.80;;;;;;;1.47;74.99;99532.42;124388;1111;23071;-58
2021/03/15 01:21:41;;;;;;;33.67;12.03;;;;;;;1.46;74.89;99532.86;124312;1111;23011;-59
2021/03/15 01:24:10;;;;;;;32.40;13.50;;;;;;;1.42;75.22;99526.69;124229;1111;23067;-59
2021/03/15 01:26:39;;;;;;;32.25;11.90;;;;;;;1.38;75.34;99534.27;124285;1111;23341;-58
2021/03/15 01:29:09;;;;;;;28.40;11.33;;;;;;;1.32;75.54;99525.78;124209;1110;24649;-59
2021/03/15 01:31:38;;;;;;;28.52;11.18;;;;;;;1.29;75.55;99523.11;124395;1111;23014;-57
2021/03/15 01:34:07;;;;;;;33.47;12.63;;;;;;;1.25;75.06;99525.95;124348;1111;23209;-59
2021/03/15 01:36:36;;;;;;;32.70;12.67;;;;;;;1.24;75.03;99520.91;124349;1111;23001;-57
2021/03/15 01:39:06;;;;;;;35.90;13.40;;;;;;;1.21;75.85;99514.28;124385;1112;23067;-58
2021/03/15 01:41:35;;;;;;;34.35;13.32;;;;;;;1.22;75.28;99512.31;124388;1111;27307;-59
2021/03/15 01:44:05;;;;;;;34.83;13.47;;;;;;;1.20;75.09;99512.72;124200;1111;23205;-59
2021/03/15 01:46:35;;;;;;;30.33;11.87;;;;;;;1.21;75.35;99522.53;124399;1112;24739;-59
2021/03/15 01:49:04;;;;;;;32.73;11.08;;;;;;;1.21;75.68;99511.53;124349;1112;23212;-59
2021/03/15 01:51:33;;;;;;;32.00;11.30;;;;;;;1.22;75.35;99517.81;124264;1112;23068;-64
2021/03/15 01:54:02;;;;;;;32.37;11.93;;;;;;;1.20;75.29;99514.72;124378;1112;25364;-59
2021/03/15 01:56:32;;;;;;;29.17;10.37;;;;;;;1.18;75.12;99512.39;124565;1112;23007;-59
2021/03/15 01:59:01;;;;;;;28.83;11.03;;;;;;;1.15;74.90;99512.49;124314;1112;27218;-57
2021/03/15 02:01:30;;;;;;;32.50;11.83;;;;;;;1.13;75.60;99504.69;124270;1112;26568;-56
2021/03/15 02:03:59;;;;;;;26.17;10.57;;;;;;;1.11;75.63;99507.09;124354;1112;23073;-58
2021/03/15 02:06:28;;;;;;;35.63;12.90;;;;;;;1.09;75.12;99504.01;124329;1112;23053;-59
2021/03/15 02:08:57;;;;;;;32.20;10.93;;;;;;;1.06;75.72;99504.86;124423;1112;26430;-56
2021/03/15 02:11:37;;;;;;;30.77;12.23;;;;;;;1.04;75.98;99503.74;124261;1111;23002;-59
2021/03/15 02:14:23;;;;;;;31.00;12.37;;;;;;;1.00;75.36;99501.09;124371;1112;23082;-57
2021/03/15 02:17:00;;;;;;;33.05;12.10;;;;;;;0.96;76.23;99494.92;124471;1111;25377;-59
2021/03/15 02:19:57;;;;;;;31.97;11.10;;;;;;;0.96;75.92;99488.64;124436;1112;23110;-59
2021/03/15 02:22:58;;;;;;;27.53;10.83;;;;;;;0.94;75.67;99493.80;124253;1112;23165;-58
2021/03/15 02:25:59;;;;;;;29.37;10.07;;;;;;;0.91;76.09;99498.18;124261;1112;22973;-58
2021/03/15 02:28:49;;;;;;;30.15;9.45;;;;;;;0.92;75.40;99501.70;124481;1112;23012;-58
2021/03/15 02:31:37;;;;;;;35.63;9.18;;;;;;;0.93;75.47;99487.55;124302;1112;23229;-57
2021/03/15 02:34:27;;;;;;;27.30;9.47;;;;;;;0.92;76.30;99488.75;124355;1111;23449;-57
2021/03/15 02:36:58;;;;;;;34.40;9.90;;;;;;;0.95;75.84;99495.36;124395;1112;23248;-56
2021/03/15 02:39:34;;;;;;;24.57;8.07;;;;;;;0.97;75.66;99490.20;124265;1112;24824;-58
2021/03/15 02:42:09;;;;;;;28.97;9.80;;;;;;;0.98;75.91;99486.23;124453;1111;24676;-58
2021/03/15 02:44:43;;;;;;;26.30;9.43;;;;;;;0.96;75.90;99497.67;124366;1112;26207;-59
2021/03/15 02:47:18;;;;;;;29.97;10.03;;;;;;;0.94;75.84;99488.30;124314;1111;23202;-58
2021/03/15 02:49:53;;;;;;;28.95;10.50;;;;;;;0.92;75.45;99498.95;124368;1112;24060;-58
2021/03/15 02:52:24;;;;;;;30.40;9.50;;;;;;;0.90;75.23;99487.62;124348;1112;25911;-59
2021/03/15 02:54:55;;;;;;;28.83;9.83;;;;;;;0.87;76.02;99492.00;124508;1112;25979;-58
2021/03/15 02:57:25;;;;;;;30.90;9.27;;;;;;;0.83;75.42;99492.10;124307;1112;26729;-56
2021/03/15 02:59:58;;;;;;;27.50;9.97;;;;;;;0.82;75.62;99498.04;124409;1112;23013;-58
2021/03/15 03:02:28;;;;;;;27.20;10.07;;;;;;;0.81;75.80;99490.98;124502;1109;27303;-59
2021/03/15 03:04:59;;;;;;;26.62;9.20;;;;;;;0.78;75.29;99500.10;124817;1109;22980;-59
2021/03/15 03:07:29;;;;;;;29.53;9.37;;;;;;;0.77;75.20;99499.33;125138;1109;23177;-57
2021/03/15 03:10:01;;;;;;;28.73;9.08;;;;;;;0.77;75.29;99498.55;124804;1109;24652;-62
2021/03/15 03:12:31;;;;;;;27.70;9.30;;;;;;;0.76;75.03;99494.27;124851;1108;23037;-58
2021/03/15 03:15:01;;;;;;;25.82;9.25;;;;;;;0.74;75.38;99494.70;125138;1108;26434;-59
2021/03/15 03:17:35;;;;;;;26.70;9.13;;;;;;;0.73;75.50;99490.40;124805;1109;26199;-59
2021/03/15 03:20:07;;;;;;;24.83;9.33;;;;;;;0.71;75.08;99492.80;124908;1108;23017;-59
2021/03/15 03:22:38;;;;;;;29.53;9.37;;;;;;;0.71;75.01;99494.77;124862;1109;23010;-59
2021/03/15 03:25:07;;;;;;;;;;;;;;;0.71;74.73;99492.80;128417;1107;22760;-59
2021/03/15 03:27:37;;;;;;;27.87;9.93;;;;;;;0.72;74.94;99490.84;126489;1109;21612;-59
2021/03/15 03:30:12;;;;;;;26.70;9.30;;;;;;;0.73;74.76;99484.91;124718;1109;23612;-59
2021/03/15 03:32:43;;;;;;;24.90;8.73;;;;;;;0.74;75.14;99491.18;124757;1109;26400;-58
2021/03/15 03:35:13;;;;;;;28.07;9.93;;;;;;;0.74;74.66;99500.20;124615;1109;26382;-58
2021/03/15 03:37:42;;;;;;;34.00;11.63;;;;;;;0.73;74.46;99495.11;124707;1109;23001;-56
2021/03/15 03:40:14;;;;;;;27.47;8.80;;;;;;;0.73;74.79;99495.89;124849;1109;23051;-59
2021/03/15 03:42:44;;;;;;;29.23;10.33;;;;;;;0.73;74.90;99497.86;124714;1108;23057;-59
2021/03/15 03:45:16;;;;;;;29.40;10.80;;;;;;;0.71;74.47;99497.52;124830;1109;23055;-58
2021/03/15 03:47:46;;;;;;;30.90;10.27;;;;;;;0.70;75.06;99501.48;124794;1109;27896;-58
2021/03/15 03:50:17;;;;;;;32.35;12.47;;;;;;;0.65;74.44;99494.53;124904;1108;23018;-57
2021/03/15 03:52:52;;;;;;;28.77;11.10;;;;;;;0.62;74.96;99498.13;124688;1109;23107;-58
2021/03/15 03:55:23;;;;;;;31.60;10.87;;;;;;;0.58;74.68;99502.94;124731;1109;24447;-59
2021/03/15 03:57:55;;;;;;;25.87;9.87;;;;;;;0.54;74.63;99496.75;124712;1109;23004;-58
2021/03/15 04:00:26;;;;;;;31.50;11.27;;;;;;;0.50;74.57;99498.81;124753;1109;23001;-57
2021/03/15 04:03:04;;;;;;;26.73;9.77;;;;;;;0.46;75.20;99505.59;124741;1109;27304;-56
2021/03/15 04:05:34;;;;;;;32.10;10.93;;;;;;;0.42;75.25;99496.66;124659;1109;26188;-59
2021/03/15 04:08:08;;;;;;;31.33;9.75;;;;;;;0.39;75.52;99501.06;124810;1109;22997;-57
2021/03/15 04:10:38;;;;;;;29.13;10.10;;;;;;;0.39;75.18;99501.06;124632;1108;24800;-59
2021/03/15 04:13:10;;;;;;;27.73;10.00;;;;;;;0.40;75.33;99502.59;124683;1109;24922;-59
2021/03/15 04:15:44;;;;;;;22.57;8.30;;;;;;;0.39;74.67;99503.81;124903;1108;23055;-57
2021/03/15 04:18:15;;;;;;;24.53;8.33;;;;;;;0.37;74.95;99502.69;124886;1108;26418;-58
2021/03/15 04:20:49;;;;;;;26.47;8.60;;;;;;;0.33;74.60;99510.98;124767;1109;23022;-58
2021/03/15 04:23:23;;;;;;;29.73;10.10;;;;;;;0.31;75.50;99502.40;124765;1109;23341;-59
2021/03/15 04:25:53;;;;;;;26.63;9.10;;;;;;;0.30;75.41;99508.33;124817;1109;23429;-59
2021/03/15 04:28:23;;;;;;;31.77;10.63;;;;;;;0.29;75.46;99506.80;124712;1108;23071;-58
2021/03/15 04:30:53;;;;;;;25.37;8.15;;;;;;;0.29;74.83;99502.06;124705;1108;23158;-58
2021/03/15 04:33:23;;;;;;;27.00;9.47;;;;;;;0.28;74.62;99507.98;124883;1109;23040;-59
2021/03/15 04:35:54;;;;;;;27.77;8.97;;;;;;;0.26;75.38;99508.42;124797;1109;23172;-57
2021/03/15 04:38:24;;;;;;;24.27;8.13;;;;;;;0.23;75.43;99514.75;124866;1108;23094;-58
2021/03/15 04:40:54;;;;;;;27.17;8.90;;;;;;;0.23;75.36;99511.25;124706;1108;27569;-59
2021/03/15 04:43:25;;;;;;;23.83;8.40;;;;;;;0.22;75.19;99515.19;124528;1112;23007;-58
2021/03/15 04:45:55;;;;;;;28.57;8.13;;;;;;;0.22;74.73;99515.96;124912;1108;23012;-59
2021/03/15 04:48:27;;;;;;;27.30;9.17;;;;;;;0.20;74.77;99523.07;124840;1109;26054;-59
2021/03/15 04:51:00;;;;;;;24.20;8.33;;;;;;;0.19;74.56;99519.55;124863;1109;23007;-56
2021/03/15 04:53:31;;;;;;;27.90;8.67;;;;;;;0.20;75.32;99514.84;124503;1112;23067;-59
2021/03/15 04:56:04;;;;;;;28.97;10.97;;;;;;;0.21;74.96;99517.15;124874;1109;23017;-59
2021/03/15 04:58:36;;;;;;;38.50;12.97;;;;;;;0.23;75.17;99519.48;124911;1109;23157;-59
2021/03/15 05:01:07;;;;;;;32.87;12.03;;;;;;;0.24;74.52;99524.55;124830;1108;23070;-58
2021/03/15 05:03:38;;;;;;;30.17;11.67;;;;;;;0.25;74.49;99523.33;124917;1108;23074;-55
2021/03/15 05:06:10;;;;;;;32.90;11.80;;;;;;;0.27;75.41;99528.41;124891;1109;23425;-59
2021/03/15 05:08:46;;;;;;;28.73;10.90;;;;;;;0.28;75.31;99527.98;124906;1109;24618;-58
2021/03/15 05:11:16;;;;;;;30.90;11.40;;;;;;;0.30;74.73;99531.06;124833;1108;23005;-58
2021/03/15 05:13:45;;;;;;;;;;;;;;;0.32;74.36;99531.41;124937;1109;24661;-58
2021/03/15 05:16:15;;;;;;;29.53;10.50;;;;;;;0.32;75.06;99533.38;124784;1109;25441;-57
2021/03/15 05:18:45;;;;;;;31.80;11.65;;;;;;;0.32;75.22;99536.13;124689;1109;22995;-59
2021/03/15 05:21:14;;;;;;;34.73;12.78;;;;;;;0.32;75.25;99533.38;124647;1108;22980;-63
2021/03/15 05:23:43;;;;;;;39.13;13.10;;;;;;;0.33;75.34;99538.44;124783;1109;23007;-65
2021/03/15 05:26:14;;;;;;;32.97;13.00;;;;;;;0.31;75.41;99521.62;124810;1109;24648;-59
2021/03/15 05:28:43;;;;;;;;;;;;;;;0.33;75.61;99529.45;124738;1109;23167;-59
2021/03/15 05:31:14;;;;;;;40.05;14.60;;;;;;;0.35;75.72;99530.55;124940;1109;24614;-60
2021/03/15 05:33:45;;;;;;;38.57;15.33;;;;;;;0.38;75.36;99532.45;124895;1109;22965;-59
2021/03/15 05:36:16;;;;;;;36.23;14.83;;;;;;;0.43;75.42;99531.17;124770;1109;22993;-58
2021/03/15 05:38:46;;;;;;;34.43;13.80;;;;;;;0.46;75.04;99538.54;124818;1109;26386;-59
2021/03/15 05:41:15;;;;;;;;;;;;;;;0.49;75.09;99537.70;124783;1109;23064;-58
2021/03/15 05:44:12;;;;;;;41.03;17.80;;;;;;;0.51;75.63;99541.56;124758;1108;21526;-59
2021/03/15 05:47:33;;;;;;;43.10;16.43;;;;;;;0.55;75.85;99535.98;124788;1108;23014;-56
2021/03/15 05:50:33;;;;;;;41.95;15.45;;;;;;;0.61;75.83;99543.28;124450;1109;26189;-58
2021/03/15 05:53:23;;;;;;;52.13;23.73;;;;;;;0.67;76.63;99535.30;124355;1109;23246;-58
2021/03/15 05:56:10;;;;;;;54.42;24.80;;;;;;;0.69;76.78;99533.67;124411;1112;27358;-59
2021/03/15 05:59:11;;;;;;;48.93;22.73;;;;;;;0.69;76.81;99533.67;124667;1109;27422;-56
2021/03/15 06:02:37;;;;;;;43.83;19.03;;;;;;;0.72;76.43;99527.30;124526;1109;28717;-58
2021/03/15 06:05:24;;;;;;;43.00;17.15;;;;;;;0.79;76.51;99526.36;124182;1112;23404;-58
2021/03/15 06:08:02;;;;;;;40.63;17.00;;;;;;;0.86;77.33;99522.67;124892;1112;23056;-56
2021/03/15 06:10:43;;;;;;;39.40;14.53;;;;;;;0.89;76.88;99530.81;124649;1112;23081;-58
2021/03/15 06:13:16;;;;;;;39.27;16.70;;;;;;;0.92;76.34;99532.72;124530;1112;23080;-59
2021/03/15 06:15:48;;;;;;;35.60;14.70;;;;;;;0.98;76.53;99535.70;124369;1111;23070;-62
2021/03/15 06:18:18;;;;;;;40.07;14.20;;;;;;;1.02;76.58;99534.41;124284;1112;23242;-58
2021/03/15 06:20:49;;;;;;;40.27;15.27;;;;;;;1.06;76.78;99537.84;124391;1111;26169;-58
2021/03/15 06:23:18;;;;;;;34.20;14.73;;;;;;;1.08;76.58;99532.69;124357;1112;23055;-57
2021/03/15 06:25:49;;;;;;;34.13;14.28;;;;;;;1.12;77.49;99533.36;124385;1112;27893;-58
2021/03/15 06:28:19;;;;;;;38.63;14.67;;;;;;;1.16;76.81;99528.55;124310;1112;24604;-58
2021/03/15 06:30:50;;;;;;;33.88;14.33;;;;;;;1.20;77.42;99531.97;124375;1112;23058;-57
2021/03/15 06:33:20;;;;;;;35.30;13.17;;;;;;;1.24;76.77;99532.65;124260;1112;23182;-59
2021/03/15 06:35:57;;;;;;;35.55;14.18;;;;;;;1.28;77.43;99530.58;124399;1112;23061;-59
2021/03/15 06:38:28;;;;;;;30.30;12.70;;;;;;;1.33;77.77;99540.28;124498;1109;23065;-56
2021/03/15 06:40:58;;;;;;;33.63;13.53;;;;;;;1.37;77.04;99540.95;124812;1109;23003;-56
2021/03/15 06:43:28;;;;;;;36.25;14.58;;;;;;;1.41;77.51;99536.13;124881;1109;22997;-59
2021/03/15 06:45:57;;;;;;;36.45;14.53;;;;;;;1.46;77.09;99533.64;124835;1109;23014;-57
2021/03/15 06:48:27;;;;;;;36.17;14.30;;;;;;;1.51;77.29;99540.59;124875;1109;23255;-56
2021/03/15 06:50:58;;;;;;;33.48;12.63;;;;;;;1.56;77.72;99537.30;124721;1109;23255;-58
2021/03/15 06:53:37;;;;;;;34.43;15.03;;;;;;;1.60;77.60;99537.97;124991;1109;23259;-58
2021/03/15 06:56:12;;;;;;;37.35;14.35;;;;;;;1.65;77.39;99543.70;124872;1108;23055;-60
2021/03/15 06:58:50;;;;;;;34.40;13.45;;;;;;;1.69;77.82;99543.62;124888;1109;26428;-59
2021/03/15 07:01:22;;;;;;;33.23;13.67;;;;;;;1.74;77.63;99542.31;124735;1109;26124;-59
2021/03/15 07:03:52;;;;;;;36.75;13.80;;;;;;;1.79;77.39;99545.30;124846;1109;23014;-55
2021/03/15 07:06:22;;;;;;;35.15;14.10;;;;;;;1.84;78.07;99542.02;124712;1108;23097;-58
2021/03/15 07:09:07;;;;;;;36.03;13.80;;;;;;;1.90;77.61;99540.27;124805;1109;23012;-58
2021/03/15 07:11:36;;;;;;;34.30;13.43;;;;;;;1.98;78.46;99538.84;124808;1109;23040;-57
2021/03/15 07:14:06;;;;;;;35.67;15.47;;;;;;;2.04;77.63;99545.35;124836;1109;23014;-58
2021/03/15 07:16:35;;;;;;;36.25;15.55;;;;;;;2.13;77.71;99533.70;124853;1109;22973;-58
2021/03/15 07:19:23;;;;;;;36.77;15.08;;;;;;;2.20;78.28;99539.75;125073;1109;23061;-60
2021/03/15 07:21:52;;;;;;;34.10;13.77;;;;;;;2.27;78.08;99541.52;124848;1109;23058;-59
2021/03/15 07:24:29;;;;;;;33.40;14.33;;;;;;;2.35;77.62;99538.12;124741;1109;26029;-59
2021/03/15 07:26:58;;;;;;;35.87;14.20;;;;;;;2.43;78.27;99539.44;124738;1109;27695;-55
2021/03/15 07:29:29;;;;;;;33.97;14.27;;;;;;;2.51;77.81;99539.20;124776;1109;23064;-58
2021/03/15 07:31:59;;;;;;;35.25;14.90;;;;;;;2.57;77.47;99534.67;124650;1109;23203;-60
2021/03/15 07:34:29;;;;;;;29.77;13.53;;;;;;;2.64;77.44;99545.48;124784;1109;23170;-61
2021/03/15 07:37:00;;;;;;;30.35;12.93;;;;;;;2.70;77.52;99540.95;125152;1107;23055;-59
2021/03/15 07:39:31;;;;;;;29.50;13.43;;;;;;;2.77;77.35;99543.49;124999;1107;27698;-60
2021/03/15 07:42:02;;;;;;;33.83;12.97;;;;;;;2.82;77.65;99537.41;125119;1107;22963;-59
2021/03/15 07:44:34;;;;;;;34.07;14.40;;;;;;;2.89;77.11;99537.19;125094;1109;23000;-58
2021/03/15 07:47:06;;;;;;;32.15;14.30;;;;;;;2.95;77.21;99544.45;125250;1109;23004;-61
2021/03/15 07:49:38;;;;;;;35.83;14.67;;;;;;;3.02;77.33;99538.69;125093;1109;26386;-59
2021/03/15 07:52:09;;;;;;;31.57;13.87;;;;;;;3.10;77.42;99544.75;125135;1109;23020;-61
2021/03/15 07:54:39;;;;;;;33.30;13.77;;;;;;;3.16;77.42;99540.99;125032;1109;23094;-60
2021/03/15 07:57:22;;;;;;;32.67;14.07;;;;;;;3.24;76.83;99542.29;125056;1108;27349;-60
2021/03/15 07:59:52;;;;;;;32.83;13.07;;;;;;;3.31;77.48;99544.01;125172;1109;23133;-61
2021/03/15 08:02:23;;;;;;;30.88;12.98;;;;;;;3.40;77.18;99554.36;125210;1109;23006;-60
2021/03/15 08:04:54;;;;;;;31.37;14.00;;;;;;;3.47;77.28;99562.40;125095;1108;23074;-58
2021/03/15 08:07:24;;;;;;;33.00;14.00;;;;;;;3.51;76.67;99555.55;125239;1109;26713;-58
2021/03/15 08:09:57;;;;;;;30.67;13.83;;;;;;;3.58;76.93;99560.80;125332;1108;26739;-58
2021/03/15 08:12:31;;;;;;;33.37;13.67;;;;;;;3.64;77.30;99567.28;125160;1109;27394;-60
2021/03/15 08:15:04;;;;;;;31.17;14.00;;;;;;;3.71;77.16;99560.74;125162;1108;23052;-60
2021/03/15 08:17:36;;;;;;;27.20;12.87;;;;;;;3.78;76.70;99554.98;125159;1109;26005;-60
2021/03/15 08:20:09;;;;;;;30.33;12.73;;;;;;;3.83;76.40;99560.68;125338;1108;28473;-60
2021/03/15 08:22:42;;;;;;;29.90;13.25;;;;;;;3.90;76.59;99562.42;125305;1109;29707;-59
2021/03/15 08:25:14;;;;;;;30.10;13.25;;;;;;;3.97;76.85;99557.39;125168;1109;26004;-59
2021/03/15 08:27:44;;;;;;;34.23;13.93;;;;;;;4.04;76.47;99565.43;125668;1109;23009;-59
2021/03/15 08:30:23;;;;;;;34.25;13.90;;;;;;;4.10;76.41;99555.34;125191;1107;25934;-59
2021/03/15 08:32:56;;;;;;;31.17;13.13;;;;;;;4.18;76.28;99557.84;125365;1108;22977;-60
2021/03/15 08:35:26;;;;;;;35.37;14.90;;;;;;;4.24;76.54;99556.81;125283;1109;22990;-61
2021/03/15 08:37:59;;;;;;;28.17;12.23;;;;;;;4.29;76.15;99555.42;125351;1109;23156;-60
2021/03/15 08:40:56;;;;;;;28.97;12.40;;;;;;;4.34;75.71;99552.87;125158;1109;22978;-60
2021/03/15 08:43:47;;;;;;;35.25;13.10;;;;;;;4.43;76.20;99552.89;125098;1108;26315;-61
2021/03/15 08:46:20;;;;;;;33.85;14.45;;;;;;;4.51;75.91;99545.11;125093;1109;23071;-60
2021/03/15 08:49:07;;;;;;;32.87;13.73;;;;;;;4.59;75.78;99544.34;125160;1107;25685;-59
2021/03/15 08:51:48;;;;;;;32.33;13.33;;;;;;;4.69;76.04;99553.47;125206;1108;23071;-60
2021/03/15 08:54:41;;;;;;;33.57;12.40;;;;;;;4.75;75.36;99548.88;125324;1107;25959;-58
2021/03/15 08:57:30;;;;;;;31.50;13.35;;;;;;;4.81;75.74;99547.05;124975;1110;23343;-59
2021/03/15 09:00:02;;;;;;;34.13;12.73;;;;;;;4.89;75.52;99548.30;124783;1112;23033;-60
2021/03/15 09:02:40;;;;;;;31.57;12.47;;;;;;;4.97;75.83;99546.77;124732;1112;23448;-60
2021/03/15 09:05:24;;;;;;;30.93;13.37;;;;;;;5.05;75.53;99541.73;124928;1112;23243;-59
2021/03/15 09:07:55;;;;;;;33.43;12.97;;;;;;;5.11;75.05;99539.91;124691;1112;24788;-58
2021/03/15 09:10:45;;;;;;;27.83;11.47;;;;;;;5.18;75.31;99537.59;124870;1111;24418;-58
2021/03/15 09:13:32;;;;;;;27.95;12.03;;;;;;;5.25;75.03;99526.23;124911;1111;23240;-60
2021/03/15 09:16:08;;;;;;;27.70;12.13;;;;;;;5.36;75.06;99534.09;124636;1112;27169;-59
2021/03/15 09:18:51;;;;;;;26.63;11.27;;;;;;;5.47;74.94;99534.38;124788;1112;24374;-61
2021/03/15 09:21:50;;;;;;;29.27;11.60;;;;;;;5.57;74.76;99530.38;125114;1112;23112;-61
2021/03/15 09:24:40;;;;;;;23.45;11.10;;;;;;;5.68;74.46;99530.69;125547;1112;25941;-61
2021/03/15 09:27:10;;;;;;;30.17;11.10;;;;;;;5.75;74.51;99520.05;124663;1112;23003;-61
2021/03/15 09:29:40;;;;;;;25.35;10.63;;;;;;;5.80;73.84;99518.67;127191;1112;23083;-60
2021/03/15 09:32:11;;;;;;;24.60;9.95;;;;;;;5.86;74.14;99516.06;125668;1111;23070;-60
2021/03/15 09:34:41;;;;;;;25.40;10.50;;;;;;;5.91;73.99;99524.53;125243;1109;24457;-61
2021/03/15 09:37:11;;;;;;;23.23;10.57;;;;;;;5.98;74.22;99512.38;125579;1109;23973;-59
2021/03/15 09:39:46;;;;;;;28.10;11.40;;;;;;;6.06;74.23;99516.34;125302;1107;23302;-61
2021/03/15 09:42:19;;;;;;;24.83;10.20;;;;;;;6.13;74.32;99514.02;125229;1109;24278;-59
2021/03/15 09:44:49;;;;;;;23.77;9.20;;;;;;;6.19;73.79;99517.69;125218;1108;23007;-60
2021/03/15 09:47:26;;;;;;;25.23;10.73;;;;;;;6.22;73.47;99511.22;124960;1109;23136;-59
2021/03/15 09:49:55;;;;;;;28.03;11.20;;;;;;;6.23;73.41;99512.74;125209;1108;23015;-62
2021/03/15 09:52:25;;;;;;;28.37;11.40;;;;;;;6.27;73.34;99512.59;125100;1108;23064;-60
2021/03/15 09:54:58;;;;;;;25.08;10.82;;;;;;;6.27;73.18;99515.38;125231;1109;23068;-61
2021/03/15 09:57:30;;;;;;;27.97;11.07;;;;;;;6.26;73.10;99506.28;125189;1109;25007;-61
2021/03/15 10:00:11;;;;;;;26.17;10.80;;;;;;;6.30;73.69;99511.65;125165;1109;23135;-62
2021/03/15 10:02:42;;;;;;;27.83;12.37;;;;;;;6.33;72.94;99511.47;125292;1109;22975;-61
2021/03/15 10:05:18;;;;;;;26.62;12.13;;;;;;;6.38;73.25;99513.63;125067;1109;23055;-61
2021/03/15 10:07:49;;;;;;;28.67;13.57;;;;;;;6.46;73.08;99502.95;125329;1109;23033;-62
2021/03/15 10:10:20;;;;;;;30.23;13.13;;;;;;;6.55;73.32;99505.70;125333;1109;23001;-60
2021/03/15 10:12:51;;;;;;;26.13;11.57;;;;;;;6.66;73.40;99505.19;125102;1107;27355;-58
2021/03/15 10:15:20;;;;;;;25.50;11.55;;;;;;;6.75;73.02;99494.80;124974;1109;23018;-61
2021/03/15 10:17:49;;;;;;;21.80;10.20;;;;;;;6.83;72.32;99495.23;125622;1109;23010;-61
2021/03/15 10:20:27;;;;;;;25.53;9.13;;;;;;;6.87;71.49;99495.83;125184;1109;22985;-61
2021/03/15 10:22:57;;;;;;;18.60;7.20;;;;;;;6.92;71.01;99495.94;125190;1107;23001;-60
2021/03/15 10:25:26;;;;;;;18.70;6.92;;;;;;;6.96;70.71;99492.97;125045;1108;23049;-61
2021/03/15 10:27:58;;;;;;;19.57;7.90;;;;;;;6.97;70.53;99480.65;125199;1109;23181;-60
2021/03/15 10:30:32;;;;;;;22.33;9.17;;;;;;;6.98;70.90;99476.62;125092;1108;24670;-61
2021/03/15 10:33:02;;;;;;;21.45;7.75;;;;;;;7.01;70.43;99484.78;124972;1108;23073;-60
2021/03/15 10:35:33;;;;;;;20.23;7.45;;;;;;;7.05;70.02;99482.59;125118;1109;22998;-61
2021/03/15 10:38:05;;;;;;;17.83;6.70;;;;;;;7.07;70.18;99474.56;124670;1109;23008;-61
2021/03/15 10:40:35;;;;;;;18.40;7.33;;;;;;;7.11;70.28;99479.92;124870;1107;24801;-61
2021/03/15 10:43:06;;;;;;;22.02;8.23;;;;;;;7.18;70.01;99469.22;125228;1108;23058;-61
2021/03/15 10:45:35;;;;;;;19.40;7.50;;;;;;;7.27;69.76;99473.94;125086;1109;27505;-60
2021/03/15 10:48:07;;;;;;;22.07;8.03;;;;;;;7.32;69.52;99468.48;125209;1107;23014;-62
2021/03/15 10:50:39;;;;;;;20.73;7.53;;;;;;;7.35;69.21;99461.99;125052;1109;23054;-62
2021/03/15 10:53:14;;;;;;;19.00;7.40;;;;;;;7.34;68.95;99471.55;125161;1109;23062;-61
2021/03/15 10:55:44;;;;;;;20.20;8.37;;;;;;;7.31;69.36;99457.86;125073;1107;23055;-60
2021/03/15 10:58:16;;;;;;;21.23;7.83;;;;;;;7.33;69.39;99458.16;125146;1109;23064;-62
2021/03/15 11:00:46;;;;;;;18.73;7.47;;;;;;;7.34;69.22;99454.89;125100;1107;23359;-61
2021/03/15 11:03:24;;;;;;;21.83;8.37;;;;;;;7.36;69.09;99457.22;125017;1108;23054;-62
2021/03/15 11:06:06;;;;;;;20.27;8.63;;;;;;;7.32;68.97;99453.86;124517;1111;24651;-61
2021/03/15 11:08:36;;;;;;;18.17;7.40;;;;;;;7.25;68.28;99452.21;124800;1108;23142;-61
2021/03/15 11:11:17;;;;;;;23.05;8.45;;;;;;;7.15;68.47;99452.75;125061;1107;26449;-60
2021/03/15 11:13:50;;;;;;;19.10;8.47;;;;;;;7.06;68.74;99452.81;125000;1107;23254;-59
2021/03/15 11:16:22;;;;;;;22.07;8.30;;;;;;;7.00;69.14;99449.94;125502;1109;26440;-61
2021/03/15 11:19:09;;;;;;;22.73;6.93;;;;;;;6.93;68.58;99450.28;125228;1109;27290;-61
2021/03/15 11:21:42;;;;;;;21.83;8.00;;;;;;;6.86;68.98;99442.34;125661;1107;23067;-62
2021/03/15 11:24:15;;;;;;;19.77;8.30;;;;;;;6.83;68.46;99445.30;125412;1109;23064;-61
2021/03/15 11:26:48;;;;;;;19.15;8.05;;;;;;;6.80;68.63;99444.23;125361;1109;23062;-61
2021/03/15 11:29:20;;;;;;;21.13;9.10;;;;;;;6.78;69.24;99434.84;125090;1108;23186;-61
2021/03/15 11:31:51;;;;;;;19.53;9.13;;;;;;;6.79;69.19;99434.36;124989;1109;23103;-61
2021/03/15 11:34:23;;;;;;;20.03;8.90;;;;;;;6.81;69.04;99431.10;124765;1109;25546;-60
2021/03/15 11:36:54;;;;;;;20.47;7.93;;;;;;;6.81;68.78;99442.97;124818;1109;23005;-61
2021/03/15 11:39:23;;;;;;;22.20;9.38;;;;;;;6.82;68.72;99429.87;125440;1108;23027;-61
2021/03/15 11:41:52;;;;;;;21.42;8.10;;;;;;;6.86;69.02;99431.23;128367;1109;22851;-61
2021/03/15 11:44:22;;;;;;;19.07;7.97;;;;;;;6.92;68.64;99431.34;124848;1109;23204;-59
2021/03/15 11:46:51;;;;;;;21.40;9.00;;;;;;;6.98;68.35;99427.45;125720;1109;27352;-60
2021/03/15 11:49:21;;;;;;;16.40;7.80;;;;;;;7.03;67.86;99420.48;124748;1109;22970;-59
2021/03/15 11:51:55;;;;;;;20.65;7.20;;;;;;;7.05;67.52;99420.77;124692;1109;23004;-59